aviador You're here:

OMSJ Decoded Metar

SHARJAH in UNITED ARAB EMIRATES
Report Time2017-06-22 21:00:00
UTC Time2017-06-22 22:11:44
Flight Rules Old
Wind280° at 02 kt
W.Decomp.*RWY 30: 1.9 kt HW 0.7 kt LCW
W.Rank280° ranks 17
Current wind is below 280° avg. (10.0)
Visibility9999 m
Phenomena:N/A
Clouds:N/A
Expected CloudBase > 4,400 ft AGL from Temp-Dew spread
CeilingNone
Temp35°C (ISA +20)
Dew Point24°C (53% RH)
Heat Index41.9°C
QNH0999 hPa
Density Alt3,264 ft
Elevation108 ft
Report Wrong Elevation
Raw Report
METAR OMSJ 222100Z 28002KT 240V320 CAVOK 35/24 Q0999=

Extra information for OMSJ:More info

Metar Taf Metar & Taf Last 4 Metars F.Rules Stats Wind Profile Meteogram Temp Stats Airport Information Weather charts Add Link Nearby VenuesMetar ALERT Operation Metar Decoded Social comments